sensor_id;sensor_type;location;lat;lon;timestamp;P1;durP1;ratioP1;P2;durP2;ratioP2
14139;SDS011;7150;53.514;9.988;2023-06-10T00:00:49;4.90;;;3.00;;
14139;SDS011;7150;53.514;9.988;2023-06-10T00:03:15;7.57;;;3.53;;
14139;SDS011;7150;53.514;9.988;2023-06-10T00:05:41;7.17;;;3.50;;
14139;SDS011;7150;53.514;9.988;2023-06-10T00:08:06;6.33;;;3.50;;
14139;SDS011;7150;53.514;9.988;2023-06-10T00:10:36;7.20;;;3.20;;
14139;SDS011;7150;53.514;9.988;2023-06-10T00:13:03;8.37;;;2.93;;
14139;SDS011;7150;53.514;9.988;2023-06-10T00:15:29;9.80;;;3.47;;
14139;SDS011;7150;53.514;9.988;2023-06-10T00:17:55;4.73;;;3.33;;
14139;SDS011;7150;53.514;9.988;2023-06-10T00:20:21;6.60;;;3.10;;
14139;SDS011;7150;53.514;9.988;2023-06-10T00:22:50;6.77;;;3.23;;
14139;SDS011;7150;53.514;9.988;2023-06-10T00:25:16;7.67;;;3.10;;
14139;SDS011;7150;53.514;9.988;2023-06-10T00:27:41;4.77;;;3.07;;
14139;SDS011;7150;53.514;9.988;2023-06-10T00:30:07;6.33;;;3.03;;
14139;SDS011;7150;53.514;9.988;2023-06-10T00:32:33;6.77;;;3.20;;
14139;SDS011;7150;53.514;9.988;2023-06-10T00:35:02;7.27;;;3.23;;
14139;SDS011;7150;53.514;9.988;2023-06-10T00:37:28;7.40;;;3.27;;
14139;SDS011;7150;53.514;9.988;2023-06-10T00:39:55;6.57;;;3.40;;
14139;SDS011;7150;53.514;9.988;2023-06-10T00:42:20;3.73;;;2.70;;
14139;SDS011;7150;53.514;9.988;2023-06-10T00:44:49;7.97;;;3.60;;
14139;SDS011;7150;53.514;9.988;2023-06-10T00:47:18;8.37;;;3.73;;
14139;SDS011;7150;53.514;9.988;2023-06-10T00:49:44;4.33;;;2.73;;
14139;SDS011;7150;53.514;9.988;2023-06-10T00:52:11;4.63;;;3.17;;
14139;SDS011;7150;53.514;9.988;2023-06-10T00:54:37;4.50;;;3.10;;
14139;SDS011;7150;53.514;9.988;2023-06-10T00:57:03;7.00;;;3.20;;
14139;SDS011;7150;53.514;9.988;2023-06-10T00:59:30;8.10;;;3.30;;
14139;SDS011;7150;53.514;9.988;2023-06-10T01:01:56;7.83;;;2.70;;
14139;SDS011;7150;53.514;9.988;2023-06-10T01:04:22;7.13;;;3.07;;
14139;SDS011;7150;53.514;9.988;2023-06-10T01:07:05;5.63;;;3.07;;
14139;SDS011;7150;53.514;9.988;2023-06-10T01:09:59;4.93;;;3.00;;
14139;SDS011;7150;53.514;9.988;2023-06-10T01:13:07;5.13;;;2.73;;
14139;SDS011;7150;53.514;9.988;2023-06-10T01:15:36;6.23;;;2.77;;
14139;SDS011;7150;53.514;9.988;2023-06-10T01:18:04;4.77;;;2.97;;
14139;SDS011;7150;53.514;9.988;2023-06-10T01:20:34;4.87;;;2.57;;
14139;SDS011;7150;53.514;9.988;2023-06-10T01:23:04;5.43;;;2.77;;
14139;SDS011;7150;53.514;9.988;2023-06-10T01:25:31;9.33;;;2.73;;
14139;SDS011;7150;53.514;9.988;2023-06-10T01:31:03;4.93;;;2.70;;
14139;SDS011;7150;53.514;9.988;2023-06-10T01:33:38;8.53;;;3.37;;
14139;SDS011;7150;53.514;9.988;2023-06-10T01:36:08;6.17;;;3.00;;
14139;SDS011;7150;53.514;9.988;2023-06-10T01:38:36;9.80;;;2.70;;
14139;SDS011;7150;53.514;9.988;2023-06-10T01:41:06;7.13;;;3.00;;
14139;SDS011;7150;53.514;9.988;2023-06-10T01:43:33;6.23;;;2.67;;
14139;SDS011;7150;53.514;9.988;2023-06-10T01:45:59;3.77;;;2.50;;
14139;SDS011;7150;53.514;9.988;2023-06-10T01:48:25;5.87;;;2.57;;
14139;SDS011;7150;53.514;9.988;2023-06-10T01:50:50;5.27;;;2.50;;
14139;SDS011;7150;53.514;9.988;2023-06-10T01:53:16;5.70;;;2.70;;
14139;SDS011;7150;53.514;9.988;2023-06-10T01:55:41;7.77;;;2.70;;
14139;SDS011;7150;53.514;9.988;2023-06-10T01:58:07;5.40;;;2.80;;
14139;SDS011;7150;53.514;9.988;2023-06-10T02:00:32;4.80;;;2.80;;
14139;SDS011;7150;53.514;9.988;2023-06-10T02:02:58;5.53;;;3.00;;
14139;SDS011;7150;53.514;9.988;2023-06-10T02:05:24;6.17;;;3.03;;
14139;SDS011;7150;53.514;9.988;2023-06-10T02:07:50;5.40;;;2.87;;
14139;SDS011;7150;53.514;9.988;2023-06-10T02:10:16;5.03;;;3.00;;
14139;SDS011;7150;53.514;9.988;2023-06-10T02:12:41;7.30;;;3.20;;
14139;SDS011;7150;53.514;9.988;2023-06-10T02:15:07;4.53;;;2.83;;
14139;SDS011;7150;53.514;9.988;2023-06-10T02:17:32;4.73;;;2.67;;
14139;SDS011;7150;53.514;9.988;2023-06-10T02:19:58;5.57;;;2.60;;
14139;SDS011;7150;53.514;9.988;2023-06-10T02:22:24;5.37;;;2.60;;
14139;SDS011;7150;53.514;9.988;2023-06-10T02:24:50;7.90;;;2.57;;
14139;SDS011;7150;53.514;9.988;2023-06-10T02:27:16;5.63;;;2.70;;
14139;SDS011;7150;53.514;9.988;2023-06-10T02:29:41;4.13;;;2.20;;
14139;SDS011;7150;53.514;9.988;2023-06-10T02:32:08;5.87;;;2.70;;
14139;SDS011;7150;53.514;9.988;2023-06-10T02:34:33;5.73;;;2.63;;
14139;SDS011;7150;53.514;9.988;2023-06-10T02:36:59;4.47;;;2.77;;
14139;SDS011;7150;53.514;9.988;2023-06-10T02:39:25;5.07;;;2.33;;
14139;SDS011;7150;53.514;9.988;2023-06-10T02:41:52;4.77;;;2.57;;
14139;SDS011;7150;53.514;9.988;2023-06-10T02:44:18;5.30;;;2.43;;
14139;SDS011;7150;53.514;9.988;2023-06-10T02:46:44;6.13;;;2.20;;
14139;SDS011;7150;53.514;9.988;2023-06-10T02:49:09;5.97;;;2.70;;
14139;SDS011;7150;53.514;9.988;2023-06-10T02:51:35;7.73;;;2.43;;
14139;SDS011;7150;53.514;9.988;2023-06-10T02:54:01;5.90;;;2.50;;
14139;SDS011;7150;53.514;9.988;2023-06-10T02:56:27;4.10;;;2.10;;
14139;SDS011;7150;53.514;9.988;2023-06-10T02:58:52;4.60;;;2.07;;
14139;SDS011;7150;53.514;9.988;2023-06-10T03:01:18;4.00;;;2.00;;
14139;SDS011;7150;53.514;9.988;2023-06-10T03:03:44;6.63;;;2.30;;
14139;SDS011;7150;53.514;9.988;2023-06-10T03:06:11;6.63;;;2.30;;
14139;SDS011;7150;53.514;9.988;2023-06-10T03:08:37;4.77;;;2.10;;
14139;SDS011;7150;53.514;9.988;2023-06-10T03:11:03;4.00;;;2.23;;
14139;SDS011;7150;53.514;9.988;2023-06-10T03:13:29;4.73;;;2.10;;
14139;SDS011;7150;53.514;9.988;2023-06-10T03:15:55;4.37;;;2.33;;
14139;SDS011;7150;53.514;9.988;2023-06-10T03:18:20;5.80;;;2.33;;
14139;SDS011;7150;53.514;9.988;2023-06-10T03:20:47;5.77;;;2.20;;
14139;SDS011;7150;53.514;9.988;2023-06-10T03:23:13;6.30;;;2.17;;
14139;SDS011;7150;53.514;9.988;2023-06-10T03:25:38;3.97;;;2.00;;
14139;SDS011;7150;53.514;9.988;2023-06-10T03:28:04;3.63;;;2.00;;
14139;SDS011;7150;53.514;9.988;2023-06-10T03:30:29;5.57;;;2.00;;
14139;SDS011;7150;53.514;9.988;2023-06-10T03:32:55;5.43;;;2.27;;
14139;SDS011;7150;53.514;9.988;2023-06-10T03:35:20;5.87;;;2.40;;
14139;SDS011;7150;53.514;9.988;2023-06-10T03:37:46;5.93;;;2.07;;
14139;SDS011;7150;53.514;9.988;2023-06-10T03:40:11;5.90;;;2.10;;
14139;SDS011;7150;53.514;9.988;2023-06-10T03:42:37;8.70;;;2.30;;
14139;SDS011;7150;53.514;9.988;2023-06-10T03:45:03;5.30;;;2.33;;
14139;SDS011;7150;53.514;9.988;2023-06-10T03:47:35;4.90;;;2.47;;
14139;SDS011;7150;53.514;9.988;2023-06-10T03:50:02;6.37;;;1.90;;
14139;SDS011;7150;53.514;9.988;2023-06-10T03:52:28;4.43;;;2.13;;
14139;SDS011;7150;53.514;9.988;2023-06-10T03:54:54;6.10;;;2.40;;
14139;SDS011;7150;53.514;9.988;2023-06-10T03:57:19;4.67;;;1.97;;
14139;SDS011;7150;53.514;9.988;2023-06-10T03:59:45;4.00;;;1.93;;
14139;SDS011;7150;53.514;9.988;2023-06-10T04:02:10;4.33;;;1.80;;
14139;SDS011;7150;53.514;9.988;2023-06-10T04:04:36;4.67;;;2.37;;
14139;SDS011;7150;53.514;9.988;2023-06-10T04:07:02;4.10;;;2.00;;
14139;SDS011;7150;53.514;9.988;2023-06-10T04:09:28;4.33;;;1.70;;
14139;SDS011;7150;53.514;9.988;2023-06-10T04:11:54;4.30;;;2.13;;
14139;SDS011;7150;53.514;9.988;2023-06-10T04:14:19;4.50;;;2.10;;
14139;SDS011;7150;53.514;9.988;2023-06-10T04:16:45;4.90;;;2.27;;
14139;SDS011;7150;53.514;9.988;2023-06-10T04:19:10;7.53;;;2.13;;
14139;SDS011;7150;53.514;9.988;2023-06-10T04:21:36;5.07;;;1.87;;
14139;SDS011;7150;53.514;9.988;2023-06-10T04:24:01;4.73;;;1.90;;
14139;SDS011;7150;53.514;9.988;2023-06-10T04:26:27;2.87;;;1.60;;
14139;SDS011;7150;53.514;9.988;2023-06-10T04:28:53;9.50;;;2.40;;
14139;SDS011;7150;53.514;9.988;2023-06-10T04:31:18;5.70;;;2.20;;
14139;SDS011;7150;53.514;9.988;2023-06-10T04:33:44;3.63;;;2.30;;
14139;SDS011;7150;53.514;9.988;2023-06-10T04:36:10;4.73;;;1.80;;
14139;SDS011;7150;53.514;9.988;2023-06-10T04:38:35;3.83;;;1.80;;
14139;SDS011;7150;53.514;9.988;2023-06-10T04:41:01;5.33;;;2.10;;
14139;SDS011;7150;53.514;9.988;2023-06-10T04:43:27;3.97;;;1.70;;
14139;SDS011;7150;53.514;9.988;2023-06-10T04:45:53;5.30;;;1.70;;
14139;SDS011;7150;53.514;9.988;2023-06-10T04:48:19;4.47;;;2.00;;
14139;SDS011;7150;53.514;9.988;2023-06-10T04:50:44;2.63;;;1.47;;
14139;SDS011;7150;53.514;9.988;2023-06-10T04:53:10;3.90;;;2.27;;
14139;SDS011;7150;53.514;9.988;2023-06-10T04:55:35;4.97;;;1.93;;
14139;SDS011;7150;53.514;9.988;2023-06-10T04:58:01;5.63;;;2.00;;
14139;SDS011;7150;53.514;9.988;2023-06-10T05:00:27;5.07;;;2.10;;
14139;SDS011;7150;53.514;9.988;2023-06-10T05:02:52;5.23;;;1.63;;
14139;SDS011;7150;53.514;9.988;2023-06-10T05:05:18;4.20;;;1.93;;
14139;SDS011;7150;53.514;9.988;2023-06-10T05:07:44;4.37;;;1.90;;
14139;SDS011;7150;53.514;9.988;2023-06-10T05:10:09;4.57;;;2.13;;
14139;SDS011;7150;53.514;9.988;2023-06-10T05:12:37;7.47;;;2.03;;
14139;SDS011;7150;53.514;9.988;2023-06-10T05:15:03;7.13;;;2.00;;
14139;SDS011;7150;53.514;9.988;2023-06-10T05:17:30;3.90;;;2.00;;
14139;SDS011;7150;53.514;9.988;2023-06-10T05:19:55;2.93;;;1.70;;
14139;SDS011;7150;53.514;9.988;2023-06-10T05:22:21;3.97;;;2.13;;
14139;SDS011;7150;53.514;9.988;2023-06-10T05:24:48;3.90;;;2.10;;
14139;SDS011;7150;53.514;9.988;2023-06-10T05:27:14;5.20;;;2.07;;
14139;SDS011;7150;53.514;9.988;2023-06-10T05:29:40;4.33;;;1.70;;
14139;SDS011;7150;53.514;9.988;2023-06-10T05:32:05;3.80;;;2.17;;
14139;SDS011;7150;53.514;9.988;2023-06-10T05:34:31;4.17;;;2.30;;
14139;SDS011;7150;53.514;9.988;2023-06-10T05:36:57;4.90;;;1.67;;
14139;SDS011;7150;53.514;9.988;2023-06-10T05:39:22;2.97;;;1.60;;
14139;SDS011;7150;53.514;9.988;2023-06-10T05:41:48;4.77;;;1.80;;
14139;SDS011;7150;53.514;9.988;2023-06-10T05:44:13;4.77;;;2.33;;
14139;SDS011;7150;53.514;9.988;2023-06-10T05:46:39;4.40;;;1.83;;
14139;SDS011;7150;53.514;9.988;2023-06-10T05:49:04;3.53;;;1.70;;
14139;SDS011;7150;53.514;9.988;2023-06-10T05:51:30;5.70;;;2.07;;
14139;SDS011;7150;53.514;9.988;2023-06-10T05:53:55;3.47;;;1.77;;
14139;SDS011;7150;53.514;9.988;2023-06-10T05:56:21;5.00;;;1.77;;
14139;SDS011;7150;53.514;9.988;2023-06-10T05:58:47;3.03;;;1.50;;
14139;SDS011;7150;53.514;9.988;2023-06-10T06:01:13;4.20;;;1.70;;
14139;SDS011;7150;53.514;9.988;2023-06-10T06:03:39;4.43;;;1.90;;
14139;SDS011;7150;53.514;9.988;2023-06-10T06:06:04;5.83;;;2.00;;
14139;SDS011;7150;53.514;9.988;2023-06-10T06:08:30;4.13;;;1.77;;
14139;SDS011;7150;53.514;9.988;2023-06-10T06:10:55;6.30;;;2.17;;
14139;SDS011;7150;53.514;9.988;2023-06-10T06:13:21;5.90;;;2.33;;
14139;SDS011;7150;53.514;9.988;2023-06-10T06:15:47;4.20;;;2.13;;
14139;SDS011;7150;53.514;9.988;2023-06-10T06:18:12;5.20;;;1.70;;
14139;SDS011;7150;53.514;9.988;2023-06-10T06:20:38;4.00;;;1.70;;
14139;SDS011;7150;53.514;9.988;2023-06-10T06:23:03;5.53;;;1.97;;
14139;SDS011;7150;53.514;9.988;2023-06-10T06:25:29;4.40;;;1.90;;
14139;SDS011;7150;53.514;9.988;2023-06-10T06:27:54;4.23;;;2.10;;
14139;SDS011;7150;53.514;9.988;2023-06-10T06:30:20;2.00;;;1.80;;
14139;SDS011;7150;53.514;9.988;2023-06-10T06:32:45;3.73;;;1.70;;
14139;SDS011;7150;53.514;9.988;2023-06-10T06:35:11;5.10;;;2.00;;
14139;SDS011;7150;53.514;9.988;2023-06-10T06:37:36;8.17;;;2.30;;
14139;SDS011;7150;53.514;9.988;2023-06-10T06:40:02;3.57;;;1.70;;
14139;SDS011;7150;53.514;9.988;2023-06-10T06:42:28;2.93;;;1.80;;
14139;SDS011;7150;53.514;9.988;2023-06-10T06:44:54;4.23;;;1.70;;
14139;SDS011;7150;53.514;9.988;2023-06-10T06:47:19;6.30;;;1.70;;
14139;SDS011;7150;53.514;9.988;2023-06-10T06:49:45;3.60;;;1.60;;
14139;SDS011;7150;53.514;9.988;2023-06-10T06:52:12;4.50;;;2.00;;
14139;SDS011;7150;53.514;9.988;2023-06-10T06:54:38;6.80;;;2.17;;
14139;SDS011;7150;53.514;9.988;2023-06-10T06:57:03;3.33;;;1.70;;
14139;SDS011;7150;53.514;9.988;2023-06-10T06:59:30;3.57;;;1.80;;
14139;SDS011;7150;53.514;9.988;2023-06-10T07:01:56;4.20;;;1.80;;
14139;SDS011;7150;53.514;9.988;2023-06-10T07:04:21;2.40;;;1.63;;
14139;SDS011;7150;53.514;9.988;2023-06-10T07:06:47;2.87;;;1.80;;
14139;SDS011;7150;53.514;9.988;2023-06-10T07:09:13;5.43;;;1.87;;
14139;SDS011;7150;53.514;9.988;2023-06-10T07:11:39;4.67;;;2.03;;
14139;SDS011;7150;53.514;9.988;2023-06-10T07:14:04;4.40;;;1.90;;
14139;SDS011;7150;53.514;9.988;2023-06-10T07:16:30;5.27;;;1.97;;
14139;SDS011;7150;53.514;9.988;2023-06-10T07:18:55;5.00;;;1.93;;
14139;SDS011;7150;53.514;9.988;2023-06-10T07:21:21;4.20;;;2.10;;
14139;SDS011;7150;53.514;9.988;2023-06-10T07:23:48;3.07;;;1.70;;
14139;SDS011;7150;53.514;9.988;2023-06-10T07:26:14;3.97;;;1.73;;
14139;SDS011;7150;53.514;9.988;2023-06-10T07:28:40;4.30;;;2.20;;
14139;SDS011;7150;53.514;9.988;2023-06-10T07:31:06;3.83;;;2.07;;
14139;SDS011;7150;53.514;9.988;2023-06-10T07:33:32;3.53;;;1.80;;
14139;SDS011;7150;53.514;9.988;2023-06-10T07:35:58;3.83;;;2.07;;
14139;SDS011;7150;53.514;9.988;2023-06-10T07:38:24;3.30;;;2.10;;
14139;SDS011;7150;53.514;9.988;2023-06-10T07:40:50;5.87;;;2.07;;
14139;SDS011;7150;53.514;9.988;2023-06-10T07:43:16;4.57;;;2.30;;
14139;SDS011;7150;53.514;9.988;2023-06-10T07:45:42;5.20;;;1.73;;
14139;SDS011;7150;53.514;9.988;2023-06-10T07:48:08;3.53;;;1.77;;
14139;SDS011;7150;53.514;9.988;2023-06-10T07:50:33;3.33;;;2.17;;
14139;SDS011;7150;53.514;9.988;2023-06-10T07:52:59;6.40;;;2.13;;
14139;SDS011;7150;53.514;9.988;2023-06-10T07:55:25;3.77;;;1.70;;
14139;SDS011;7150;53.514;9.988;2023-06-10T07:57:53;3.83;;;1.63;;
14139;SDS011;7150;53.514;9.988;2023-06-10T08:00:19;2.73;;;1.90;;
14139;SDS011;7150;53.514;9.988;2023-06-10T08:02:45;1.90;;;1.53;;
14139;SDS011;7150;53.514;9.988;2023-06-10T08:05:11;3.93;;;2.20;;
14139;SDS011;7150;53.514;9.988;2023-06-10T08:07:37;4.30;;;2.23;;
14139;SDS011;7150;53.514;9.988;2023-06-10T08:10:03;3.47;;;2.20;;
14139;SDS011;7150;53.514;9.988;2023-06-10T08:12:30;5.87;;;1.90;;
14139;SDS011;7150;53.514;9.988;2023-06-10T08:14:55;2.27;;;1.50;;
14139;SDS011;7150;53.514;9.988;2023-06-10T08:17:21;3.87;;;1.90;;
14139;SDS011;7150;53.514;9.988;2023-06-10T08:19:46;4.03;;;2.33;;
14139;SDS011;7150;53.514;9.988;2023-06-10T08:22:12;6.57;;;2.57;;
14139;SDS011;7150;53.514;9.988;2023-06-10T08:24:37;5.33;;;2.50;;
14139;SDS011;7150;53.514;9.988;2023-06-10T08:27:03;6.27;;;2.50;;
14139;SDS011;7150;53.514;9.988;2023-06-10T08:29:29;4.03;;;1.90;;
14139;SDS011;7150;53.514;9.988;2023-06-10T08:31:56;5.00;;;2.03;;
14139;SDS011;7150;53.514;9.988;2023-06-10T08:34:22;3.23;;;1.77;;
14139;SDS011;7150;53.514;9.988;2023-06-10T08:36:48;2.43;;;1.57;;
14139;SDS011;7150;53.514;9.988;2023-06-10T08:39:18;3.97;;;2.00;;
14139;SDS011;7150;53.514;9.988;2023-06-10T08:41:46;7.00;;;2.33;;
14139;SDS011;7150;53.514;9.988;2023-06-10T08:44:28;3.03;;;2.13;;
14139;SDS011;7150;53.514;9.988;2023-06-10T08:46:58;5.40;;;2.20;;
14139;SDS011;7150;53.514;9.988;2023-06-10T08:49:26;4.43;;;2.50;;
14139;SDS011;7150;53.514;9.988;2023-06-10T08:52:00;3.20;;;1.93;;
14139;SDS011;7150;53.514;9.988;2023-06-10T08:54:30;4.93;;;2.67;;
14139;SDS011;7150;53.514;9.988;2023-06-10T08:56:58;5.50;;;2.10;;
14139;SDS011;7150;53.514;9.988;2023-06-10T08:59:27;3.90;;;2.20;;
14139;SDS011;7150;53.514;9.988;2023-06-10T09:01:52;4.10;;;1.97;;
14139;SDS011;7150;53.514;9.988;2023-06-10T09:04:19;5.43;;;2.30;;
14139;SDS011;7150;53.514;9.988;2023-06-10T09:06:45;5.17;;;2.13;;
14139;SDS011;7150;53.514;9.988;2023-06-10T09:09:14;3.93;;;1.97;;
14139;SDS011;7150;53.514;9.988;2023-06-10T09:11:40;4.03;;;2.33;;
14139;SDS011;7150;53.514;9.988;2023-06-10T09:14:07;3.80;;;2.33;;
14139;SDS011;7150;53.514;9.988;2023-06-10T09:16:33;3.73;;;2.03;;
14139;SDS011;7150;53.514;9.988;2023-06-10T09:18:59;4.03;;;2.30;;
14139;SDS011;7150;53.514;9.988;2023-06-10T09:21:25;4.10;;;2.20;;
14139;SDS011;7150;53.514;9.988;2023-06-10T09:23:50;4.70;;;2.70;;
14139;SDS011;7150;53.514;9.988;2023-06-10T09:26:17;6.97;;;3.00;;
14139;SDS011;7150;53.514;9.988;2023-06-10T09:28:48;7.60;;;2.90;;
14139;SDS011;7150;53.514;9.988;2023-06-10T09:31:17;5.40;;;2.47;;
14139;SDS011;7150;53.514;9.988;2023-06-10T09:33:46;4.20;;;2.20;;
14139;SDS011;7150;53.514;9.988;2023-06-10T09:36:23;3.50;;;2.30;;
14139;SDS011;7150;53.514;9.988;2023-06-10T09:38:49;5.13;;;2.50;;
14139;SDS011;7150;53.514;9.988;2023-06-10T09:41:18;2.70;;;1.97;;
14139;SDS011;7150;53.514;9.988;2023-06-10T09:43:44;5.43;;;2.63;;
14139;SDS011;7150;53.514;9.988;2023-06-10T09:46:17;3.80;;;2.00;;
14139;SDS011;7150;53.514;9.988;2023-06-10T09:48:44;4.50;;;2.43;;
14139;SDS011;7150;53.514;9.988;2023-06-10T09:51:11;5.43;;;2.50;;
14139;SDS011;7150;53.514;9.988;2023-06-10T09:53:37;3.73;;;2.40;;
14139;SDS011;7150;53.514;9.988;2023-06-10T09:56:03;7.87;;;3.20;;
14139;SDS011;7150;53.514;9.988;2023-06-10T09:58:35;4.93;;;2.57;;
14139;SDS011;7150;53.514;9.988;2023-06-10T10:01:08;4.27;;;2.60;;
14139;SDS011;7150;53.514;9.988;2023-06-10T10:03:42;3.87;;;2.60;;
14139;SDS011;7150;53.514;9.988;2023-06-10T10:06:12;5.03;;;2.60;;
14139;SDS011;7150;53.514;9.988;2023-06-10T10:08:38;3.43;;;2.63;;
14139;SDS011;7150;53.514;9.988;2023-06-10T10:11:04;3.60;;;2.70;;
14139;SDS011;7150;53.514;9.988;2023-06-10T10:13:30;5.13;;;2.80;;
14139;SDS011;7150;53.514;9.988;2023-06-10T10:16:13;3.87;;;2.50;;
14139;SDS011;7150;53.514;9.988;2023-06-10T10:18:41;5.40;;;2.77;;
14139;SDS011;7150;53.514;9.988;2023-06-10T10:21:13;5.13;;;2.80;;
14139;SDS011;7150;53.514;9.988;2023-06-10T10:23:44;4.50;;;3.00;;
14139;SDS011;7150;53.514;9.988;2023-06-10T10:26:32;5.00;;;3.20;;
14139;SDS011;7150;53.514;9.988;2023-06-10T10:31:41;8.10;;;3.40;;
14139;SDS011;7150;53.514;9.988;2023-06-10T10:34:09;4.70;;;2.80;;
14139;SDS011;7150;53.514;9.988;2023-06-10T10:36:40;4.77;;;2.93;;
14139;SDS011;7150;53.514;9.988;2023-06-10T10:39:06;4.43;;;2.70;;
14139;SDS011;7150;53.514;9.988;2023-06-10T10:41:32;6.57;;;3.20;;
14139;SDS011;7150;53.514;9.988;2023-06-10T10:43:58;6.30;;;2.80;;
14139;SDS011;7150;53.514;9.988;2023-06-10T10:46:25;7.30;;;3.27;;
14139;SDS011;7150;53.514;9.988;2023-06-10T10:48:53;8.83;;;3.40;;
14139;SDS011;7150;53.514;9.988;2023-06-10T10:51:22;6.27;;;2.70;;
14139;SDS011;7150;53.514;9.988;2023-06-10T10:54:09;5.27;;;3.00;;
14139;SDS011;7150;53.514;9.988;2023-06-10T10:56:38;5.30;;;2.93;;
14139;SDS011;7150;53.514;9.988;2023-06-10T10:59:04;9.87;;;3.63;;
14139;SDS011;7150;53.514;9.988;2023-06-10T11:01:40;4.13;;;2.80;;
14139;SDS011;7150;53.514;9.988;2023-06-10T11:04:07;4.33;;;2.90;;
14139;SDS011;7150;53.514;9.988;2023-06-10T11:06:34;8.00;;;3.17;;
14139;SDS011;7150;53.514;9.988;2023-06-10T11:09:00;7.77;;;3.10;;
14139;SDS011;7150;53.514;9.988;2023-06-10T11:11:26;3.73;;;2.90;;
14139;SDS011;7150;53.514;9.988;2023-06-10T11:13:57;4.83;;;3.20;;
14139;SDS011;7150;53.514;9.988;2023-06-10T11:16:26;6.27;;;3.07;;
14139;SDS011;7150;53.514;9.988;2023-06-10T11:18:56;7.40;;;3.70;;
14139;SDS011;7150;53.514;9.988;2023-06-10T11:21:25;4.23;;;2.57;;
14139;SDS011;7150;53.514;9.988;2023-06-10T11:23:50;4.93;;;3.17;;
14139;SDS011;7150;53.514;9.988;2023-06-10T11:26:20;5.77;;;3.20;;
14139;SDS011;7150;53.514;9.988;2023-06-10T11:33:54;6.90;;;3.43;;
14139;SDS011;7150;53.514;9.988;2023-06-10T11:36:28;4.77;;;3.27;;
14139;SDS011;7150;53.514;9.988;2023-06-10T11:38:57;4.10;;;3.17;;
14139;SDS011;7150;53.514;9.988;2023-06-10T11:41:33;10.17;;;4.00;;
14139;SDS011;7150;53.514;9.988;2023-06-10T11:44:04;6.53;;;3.53;;
14139;SDS011;7150;53.514;9.988;2023-06-10T11:46:34;6.33;;;3.73;;
14139;SDS011;7150;53.514;9.988;2023-06-10T11:49:00;4.90;;;3.30;;
14139;SDS011;7150;53.514;9.988;2023-06-10T11:51:40;4.30;;;2.80;;
14139;SDS011;7150;53.514;9.988;2023-06-10T11:54:09;4.63;;;3.00;;
14139;SDS011;7150;53.514;9.988;2023-06-10T11:56:35;7.00;;;3.43;;
14139;SDS011;7150;53.514;9.988;2023-06-10T11:59:01;4.43;;;3.47;;
14139;SDS011;7150;53.514;9.988;2023-06-10T12:01:35;5.67;;;3.27;;
14139;SDS011;7150;53.514;9.988;2023-06-10T12:04:03;6.63;;;3.27;;
14139;SDS011;7150;53.514;9.988;2023-06-10T12:06:48;7.70;;;3.30;;
14139;SDS011;7150;53.514;9.988;2023-06-10T12:09:15;4.97;;;3.10;;
14139;SDS011;7150;53.514;9.988;2023-06-10T12:11:52;4.90;;;3.00;;
14139;SDS011;7150;53.514;9.988;2023-06-10T12:17:15;4.43;;;3.43;;
14139;SDS011;7150;53.514;9.988;2023-06-10T12:19:41;5.60;;;3.80;;
14139;SDS011;7150;53.514;9.988;2023-06-10T12:22:06;5.77;;;3.73;;
14139;SDS011;7150;53.514;9.988;2023-06-10T12:24:32;4.90;;;3.50;;
14139;SDS011;7150;53.514;9.988;2023-06-10T12:26:57;3.97;;;3.20;;
14139;SDS011;7150;53.514;9.988;2023-06-10T12:29:24;6.30;;;3.50;;
14139;SDS011;7150;53.514;9.988;2023-06-10T12:32:34;3.60;;;3.00;;
14139;SDS011;7150;53.514;9.988;2023-06-10T12:34:41;5.33;;;3.60;;
14139;SDS011;7150;53.514;9.988;2023-06-10T12:37:10;6.23;;;3.20;;
14139;SDS011;7150;53.514;9.988;2023-06-10T12:39:40;7.10;;;4.10;;
14139;SDS011;7150;53.514;9.988;2023-06-10T12:42:06;5.70;;;3.80;;
14139;SDS011;7150;53.514;9.988;2023-06-10T12:44:35;6.77;;;3.50;;
14139;SDS011;7150;53.514;9.988;2023-06-10T12:47:11;5.13;;;3.93;;
14139;SDS011;7150;53.514;9.988;2023-06-10T12:49:40;6.50;;;3.80;;
14139;SDS011;7150;53.514;9.988;2023-06-10T12:52:05;6.13;;;4.10;;
14139;SDS011;7150;53.514;9.988;2023-06-10T12:54:32;5.30;;;3.97;;
14139;SDS011;7150;53.514;9.988;2023-06-10T12:56:57;5.53;;;3.40;;
14139;SDS011;7150;53.514;9.988;2023-06-10T12:59:23;4.57;;;3.13;;
14139;SDS011;7150;53.514;9.988;2023-06-10T13:01:52;5.73;;;3.63;;
14139;SDS011;7150;53.514;9.988;2023-06-10T13:04:20;6.23;;;4.00;;
14139;SDS011;7150;53.514;9.988;2023-06-10T13:06:47;5.00;;;3.73;;
14139;SDS011;7150;53.514;9.988;2023-06-10T13:09:14;5.93;;;3.43;;
14139;SDS011;7150;53.514;9.988;2023-06-10T13:11:40;6.23;;;3.63;;
14139;SDS011;7150;53.514;9.988;2023-06-10T13:14:06;7.43;;;3.67;;
14139;SDS011;7150;53.514;9.988;2023-06-10T13:16:32;6.27;;;3.73;;
14139;SDS011;7150;53.514;9.988;2023-06-10T13:18:58;5.53;;;3.53;;
14139;SDS011;7150;53.514;9.988;2023-06-10T13:21:24;7.27;;;3.77;;
14139;SDS011;7150;53.514;9.988;2023-06-10T13:23:50;3.70;;;3.40;;
14139;SDS011;7150;53.514;9.988;2023-06-10T13:26:16;8.17;;;3.97;;
14139;SDS011;7150;53.514;9.988;2023-06-10T13:28:44;7.00;;;3.97;;
14139;SDS011;7150;53.514;9.988;2023-06-10T13:31:10;6.80;;;4.03;;
14139;SDS011;7150;53.514;9.988;2023-06-10T13:33:36;5.80;;;3.60;;
14139;SDS011;7150;53.514;9.988;2023-06-10T13:36:01;9.00;;;4.20;;
14139;SDS011;7150;53.514;9.988;2023-06-10T13:38:27;6.77;;;3.80;;
14139;SDS011;7150;53.514;9.988;2023-06-10T13:40:53;6.20;;;4.30;;
14139;SDS011;7150;53.514;9.988;2023-06-10T13:43:18;7.37;;;4.00;;
14139;SDS011;7150;53.514;9.988;2023-06-10T13:45:44;6.77;;;4.03;;
14139;SDS011;7150;53.514;9.988;2023-06-10T13:48:10;5.47;;;3.77;;
14139;SDS011;7150;53.514;9.988;2023-06-10T13:50:35;5.67;;;3.90;;
14139;SDS011;7150;53.514;9.988;2023-06-10T13:53:02;7.63;;;4.40;;
14139;SDS011;7150;53.514;9.988;2023-06-10T13:55:27;6.60;;;3.77;;
14139;SDS011;7150;53.514;9.988;2023-06-10T13:57:52;4.87;;;3.40;;
14139;SDS011;7150;53.514;9.988;2023-06-10T14:00:18;4.60;;;3.73;;
14139;SDS011;7150;53.514;9.988;2023-06-10T14:02:44;4.30;;;3.60;;
14139;SDS011;7150;53.514;9.988;2023-06-10T14:05:09;6.30;;;4.00;;
14139;SDS011;7150;53.514;9.988;2023-06-10T14:07:35;5.47;;;3.83;;
14139;SDS011;7150;53.514;9.988;2023-06-10T14:10:02;11.07;;;7.13;;
14139;SDS011;7150;53.514;9.988;2023-06-10T14:12:28;8.67;;;4.47;;
14139;SDS011;7150;53.514;9.988;2023-06-10T14:14:53;6.60;;;3.57;;
14139;SDS011;7150;53.514;9.988;2023-06-10T14:17:18;4.77;;;3.10;;
14139;SDS011;7150;53.514;9.988;2023-06-10T14:19:44;5.13;;;3.57;;
14139;SDS011;7150;53.514;9.988;2023-06-10T14:22:10;4.77;;;2.80;;
14139;SDS011;7150;53.514;9.988;2023-06-10T14:24:35;7.23;;;3.93;;
14139;SDS011;7150;53.514;9.988;2023-06-10T14:27:01;6.33;;;3.63;;
14139;SDS011;7150;53.514;9.988;2023-06-10T14:29:27;7.50;;;3.27;;
14139;SDS011;7150;53.514;9.988;2023-06-10T14:31:54;7.07;;;3.23;;
14139;SDS011;7150;53.514;9.988;2023-06-10T14:34:19;3.80;;;2.87;;
14139;SDS011;7150;53.514;9.988;2023-06-10T14:36:45;8.00;;;3.03;;
14139;SDS011;7150;53.514;9.988;2023-06-10T14:39:11;6.03;;;3.00;;
14139;SDS011;7150;53.514;9.988;2023-06-10T14:41:36;5.73;;;3.03;;
14139;SDS011;7150;53.514;9.988;2023-06-10T14:44:02;5.83;;;3.00;;
14139;SDS011;7150;53.514;9.988;2023-06-10T14:46:27;6.37;;;3.50;;
14139;SDS011;7150;53.514;9.988;2023-06-10T14:48:53;5.97;;;3.10;;
14139;SDS011;7150;53.514;9.988;2023-06-10T14:51:18;7.57;;;3.50;;
14139;SDS011;7150;53.514;9.988;2023-06-10T14:53:45;7.37;;;3.10;;
14139;SDS011;7150;53.514;9.988;2023-06-10T14:56:11;8.73;;;3.10;;
14139;SDS011;7150;53.514;9.988;2023-06-10T14:58:37;5.17;;;3.23;;
14139;SDS011;7150;53.514;9.988;2023-06-10T15:01:03;7.27;;;3.27;;
14139;SDS011;7150;53.514;9.988;2023-06-10T15:03:28;6.63;;;3.23;;
14139;SDS011;7150;53.514;9.988;2023-06-10T15:05:54;7.80;;;3.07;;
14139;SDS011;7150;53.514;9.988;2023-06-10T15:08:19;5.20;;;2.67;;
14139;SDS011;7150;53.514;9.988;2023-06-10T15:10:45;4.50;;;2.43;;
14139;SDS011;7150;53.514;9.988;2023-06-10T15:13:13;5.23;;;3.10;;